sensor_id;sensor_type;location;lat;lon;timestamp;temperature;humidity
8953;DHT22;4511;50.890;8.054;2024-02-26T00:00:14;6.30;1.00
8953;DHT22;4511;50.890;8.054;2024-02-26T00:02:41;6.30;1.00
8953;DHT22;4511;50.890;8.054;2024-02-26T00:05:09;6.30;1.00
8953;DHT22;4511;50.890;8.054;2024-02-26T00:07:36;6.30;1.00
8953;DHT22;4511;50.890;8.054;2024-02-26T00:10:03;6.30;1.00
8953;DHT22;4511;50.890;8.054;2024-02-26T00:12:30;6.30;1.00
8953;DHT22;4511;50.890;8.054;2024-02-26T00:14:57;6.30;1.00
8953;DHT22;4511;50.890;8.054;2024-02-26T00:17:24;6.30;1.00
8953;DHT22;4511;50.890;8.054;2024-02-26T00:19:51;6.30;1.00
8953;DHT22;4511;50.890;8.054;2024-02-26T00:22:19;6.40;1.00
8953;DHT22;4511;50.890;8.054;2024-02-26T00:24:47;6.30;1.00
8953;DHT22;4511;50.890;8.054;2024-02-26T00:27:14;6.30;1.00
8953;DHT22;4511;50.890;8.054;2024-02-26T00:29:40;6.30;1.00
8953;DHT22;4511;50.890;8.054;2024-02-26T00:32:07;6.30;1.00
8953;DHT22;4511;50.890;8.054;2024-02-26T00:34:34;6.30;1.00
8953;DHT22;4511;50.890;8.054;2024-02-26T00:37:01;6.20;1.00
8953;DHT22;4511;50.890;8.054;2024-02-26T00:39:29;6.20;1.00
8953;DHT22;4511;50.890;8.054;2024-02-26T00:41:56;6.20;1.00
8953;DHT22;4511;50.890;8.054;2024-02-26T00:44:23;6.20;1.00
8953;DHT22;4511;50.890;8.054;2024-02-26T00:46:50;6.20;1.00
8953;DHT22;4511;50.890;8.054;2024-02-26T00:49:16;6.20;1.00
8953;DHT22;4511;50.890;8.054;2024-02-26T00:51:43;6.20;1.00
8953;DHT22;4511;50.890;8.054;2024-02-26T00:54:10;6.30;1.00
8953;DHT22;4511;50.890;8.054;2024-02-26T00:56:38;6.30;1.00
8953;DHT22;4511;50.890;8.054;2024-02-26T00:59:05;6.30;1.00
8953;DHT22;4511;50.890;8.054;2024-02-26T01:01:31;6.30;1.00
8953;DHT22;4511;50.890;8.054;2024-02-26T01:03:58;6.40;1.00
8953;DHT22;4511;50.890;8.054;2024-02-26T01:06:25;6.40;1.00
8953;DHT22;4511;50.890;8.054;2024-02-26T01:08:51;6.40;1.00
8953;DHT22;4511;50.890;8.054;2024-02-26T01:11:18;6.40;1.00
8953;DHT22;4511;50.890;8.054;2024-02-26T01:13:46;6.40;1.00
8953;DHT22;4511;50.890;8.054;2024-02-26T01:16:13;6.40;1.00
8953;DHT22;4511;50.890;8.054;2024-02-26T01:18:39;6.40;1.00
8953;DHT22;4511;50.890;8.054;2024-02-26T01:21:06;6.30;1.00
8953;DHT22;4511;50.890;8.054;2024-02-26T01:23:34;6.30;1.00
8953;DHT22;4511;50.890;8.054;2024-02-26T01:26:01;6.30;1.00
8953;DHT22;4511;50.890;8.054;2024-02-26T01:28:29;6.30;1.00
8953;DHT22;4511;50.890;8.054;2024-02-26T01:30:57;6.30;1.00
8953;DHT22;4511;50.890;8.054;2024-02-26T01:33:25;6.30;1.00
8953;DHT22;4511;50.890;8.054;2024-02-26T01:35:52;6.30;1.00
8953;DHT22;4511;50.890;8.054;2024-02-26T01:38:19;6.30;1.00
8953;DHT22;4511;50.890;8.054;2024-02-26T01:40:46;6.30;1.00
8953;DHT22;4511;50.890;8.054;2024-02-26T01:43:13;6.30;1.00
8953;DHT22;4511;50.890;8.054;2024-02-26T01:45:39;6.30;1.00
8953;DHT22;4511;50.890;8.054;2024-02-26T01:48:07;6.40;1.00
8953;DHT22;4511;50.890;8.054;2024-02-26T01:50:36;6.30;1.00
8953;DHT22;4511;50.890;8.054;2024-02-26T01:53:04;6.40;1.00
8953;DHT22;4511;50.890;8.054;2024-02-26T01:55:31;6.40;1.00
8953;DHT22;4511;50.890;8.054;2024-02-26T01:57:58;6.40;1.00
8953;DHT22;4511;50.890;8.054;2024-02-26T02:00:25;6.40;1.00
8953;DHT22;4511;50.890;8.054;2024-02-26T02:02:53;6.40;1.00
8953;DHT22;4511;50.890;8.054;2024-02-26T02:05:22;6.40;1.00
8953;DHT22;4511;50.890;8.054;2024-02-26T02:07:50;6.40;1.00
8953;DHT22;4511;50.890;8.054;2024-02-26T02:10:17;6.40;1.00
8953;DHT22;4511;50.890;8.054;2024-02-26T02:12:48;6.40;1.00
8953;DHT22;4511;50.890;8.054;2024-02-26T02:15:15;6.40;1.00
8953;DHT22;4511;50.890;8.054;2024-02-26T02:17:41;6.30;1.00
8953;DHT22;4511;50.890;8.054;2024-02-26T02:20:09;6.30;1.00
8953;DHT22;4511;50.890;8.054;2024-02-26T02:22:37;6.30;1.00
8953;DHT22;4511;50.890;8.054;2024-02-26T02:25:05;6.30;1.00
8953;DHT22;4511;50.890;8.054;2024-02-26T02:27:32;6.20;1.00
8953;DHT22;4511;50.890;8.054;2024-02-26T02:29:59;6.20;1.00
8953;DHT22;4511;50.890;8.054;2024-02-26T02:32:26;6.10;1.00
8953;DHT22;4511;50.890;8.054;2024-02-26T02:34:54;6.20;1.00
8953;DHT22;4511;50.890;8.054;2024-02-26T02:37:21;6.20;1.00
8953;DHT22;4511;50.890;8.054;2024-02-26T02:39:49;6.20;1.00
8953;DHT22;4511;50.890;8.054;2024-02-26T02:42:15;6.20;1.00
8953;DHT22;4511;50.890;8.054;2024-02-26T02:44:42;6.20;1.00
8953;DHT22;4511;50.890;8.054;2024-02-26T02:47:10;6.20;1.00
8953;DHT22;4511;50.890;8.054;2024-02-26T02:49:36;6.20;1.00
8953;DHT22;4511;50.890;8.054;2024-02-26T02:52:04;6.20;1.00
8953;DHT22;4511;50.890;8.054;2024-02-26T02:54:31;6.10;1.00
8953;DHT22;4511;50.890;8.054;2024-02-26T02:56:59;6.10;1.00
8953;DHT22;4511;50.890;8.054;2024-02-26T02:59:26;6.20;1.00
8953;DHT22;4511;50.890;8.054;2024-02-26T03:01:52;6.10;1.00
8953;DHT22;4511;50.890;8.054;2024-02-26T03:04:19;6.10;1.00
8953;DHT22;4511;50.890;8.054;2024-02-26T03:06:46;6.20;1.00
8953;DHT22;4511;50.890;8.054;2024-02-26T03:09:12;6.20;1.00
8953;DHT22;4511;50.890;8.054;2024-02-26T03:11:39;6.20;1.00
8953;DHT22;4511;50.890;8.054;2024-02-26T03:14:07;6.20;1.00
8953;DHT22;4511;50.890;8.054;2024-02-26T03:16:35;6.10;1.00
8953;DHT22;4511;50.890;8.054;2024-02-26T03:19:02;6.10;1.00
8953;DHT22;4511;50.890;8.054;2024-02-26T03:21:29;6.10;1.00
8953;DHT22;4511;50.890;8.054;2024-02-26T03:23:56;6.20;1.00
8953;DHT22;4511;50.890;8.054;2024-02-26T03:26:22;6.20;1.00
8953;DHT22;4511;50.890;8.054;2024-02-26T03:28:49;6.20;1.00
8953;DHT22;4511;50.890;8.054;2024-02-26T03:31:17;6.20;1.00
8953;DHT22;4511;50.890;8.054;2024-02-26T03:33:44;6.30;1.00
8953;DHT22;4511;50.890;8.054;2024-02-26T03:36:11;6.20;1.00
8953;DHT22;4511;50.890;8.054;2024-02-26T03:38:37;6.20;1.00
8953;DHT22;4511;50.890;8.054;2024-02-26T03:41:04;6.20;1.00
8953;DHT22;4511;50.890;8.054;2024-02-26T03:43:30;6.30;1.00
8953;DHT22;4511;50.890;8.054;2024-02-26T03:45:57;6.20;1.00
8953;DHT22;4511;50.890;8.054;2024-02-26T03:48:25;6.20;1.00
8953;DHT22;4511;50.890;8.054;2024-02-26T03:50:52;6.20;1.00
8953;DHT22;4511;50.890;8.054;2024-02-26T03:53:19;6.20;1.00
8953;DHT22;4511;50.890;8.054;2024-02-26T03:55:45;6.30;1.00
8953;DHT22;4511;50.890;8.054;2024-02-26T03:58:12;6.30;1.00
8953;DHT22;4511;50.890;8.054;2024-02-26T04:00:39;6.30;1.00
8953;DHT22;4511;50.890;8.054;2024-02-26T04:03:06;6.30;1.00
8953;DHT22;4511;50.890;8.054;2024-02-26T04:05:34;6.30;1.00
8953;DHT22;4511;50.890;8.054;2024-02-26T04:08:00;6.30;1.00
8953;DHT22;4511;50.890;8.054;2024-02-26T04:10:29;6.30;1.00
8953;DHT22;4511;50.890;8.054;2024-02-26T04:12:55;6.40;1.00
8953;DHT22;4511;50.890;8.054;2024-02-26T04:15:22;6.40;1.00
8953;DHT22;4511;50.890;8.054;2024-02-26T04:17:49;6.40;1.00
8953;DHT22;4511;50.890;8.054;2024-02-26T04:20:15;6.40;1.00
8953;DHT22;4511;50.890;8.054;2024-02-26T04:22:44;6.40;1.00
8953;DHT22;4511;50.890;8.054;2024-02-26T04:25:11;6.30;1.00
8953;DHT22;4511;50.890;8.054;2024-02-26T04:27:38;6.30;1.00
8953;DHT22;4511;50.890;8.054;2024-02-26T04:30:06;6.30;1.00
8953;DHT22;4511;50.890;8.054;2024-02-26T04:32:32;6.30;1.00
8953;DHT22;4511;50.890;8.054;2024-02-26T04:34:59;6.20;1.00
8953;DHT22;4511;50.890;8.054;2024-02-26T04:37:26;6.20;1.00
8953;DHT22;4511;50.890;8.054;2024-02-26T04:39:58;6.30;1.00
8953;DHT22;4511;50.890;8.054;2024-02-26T04:42:23;6.30;1.00
8953;DHT22;4511;50.890;8.054;2024-02-26T04:44:50;6.30;1.00
8953;DHT22;4511;50.890;8.054;2024-02-26T04:47:17;6.30;1.00
8953;DHT22;4511;50.890;8.054;2024-02-26T04:49:43;6.30;1.00
8953;DHT22;4511;50.890;8.054;2024-02-26T04:52:11;6.20;1.00
8953;DHT22;4511;50.890;8.054;2024-02-26T04:54:38;6.20;1.00
8953;DHT22;4511;50.890;8.054;2024-02-26T04:57:06;6.20;1.00
8953;DHT22;4511;50.890;8.054;2024-02-26T04:59:33;6.20;1.00
8953;DHT22;4511;50.890;8.054;2024-02-26T05:02:00;6.30;1.00
8953;DHT22;4511;50.890;8.054;2024-02-26T05:04:26;6.30;1.00
8953;DHT22;4511;50.890;8.054;2024-02-26T05:06:53;6.30;1.00
8953;DHT22;4511;50.890;8.054;2024-02-26T05:09:20;6.40;1.00
8953;DHT22;4511;50.890;8.054;2024-02-26T05:11:47;6.40;1.00
8953;DHT22;4511;50.890;8.054;2024-02-26T05:14:15;6.40;1.00
8953;DHT22;4511;50.890;8.054;2024-02-26T05:16:42;6.40;1.00
8953;DHT22;4511;50.890;8.054;2024-02-26T05:19:09;6.40;1.00
8953;DHT22;4511;50.890;8.054;2024-02-26T05:21:35;6.40;1.00
8953;DHT22;4511;50.890;8.054;2024-02-26T05:24:02;6.40;1.00
8953;DHT22;4511;50.890;8.054;2024-02-26T05:26:29;6.40;1.00
8953;DHT22;4511;50.890;8.054;2024-02-26T05:28:56;6.40;1.00
8953;DHT22;4511;50.890;8.054;2024-02-26T05:31:26;6.40;1.00
8953;DHT22;4511;50.890;8.054;2024-02-26T05:33:54;6.30;1.00
8953;DHT22;4511;50.890;8.054;2024-02-26T05:36:21;6.30;1.00
8953;DHT22;4511;50.890;8.054;2024-02-26T05:38:48;6.30;1.00
8953;DHT22;4511;50.890;8.054;2024-02-26T05:41:15;6.20;1.00
8953;DHT22;4511;50.890;8.054;2024-02-26T05:43:45;6.20;1.00
8953;DHT22;4511;50.890;8.054;2024-02-26T05:46:12;6.20;1.00
8953;DHT22;4511;50.890;8.054;2024-02-26T05:48:40;6.20;1.00
8953;DHT22;4511;50.890;8.054;2024-02-26T05:51:07;6.10;1.00
8953;DHT22;4511;50.890;8.054;2024-02-26T05:53:33;6.10;1.00
8953;DHT22;4511;50.890;8.054;2024-02-26T05:56:00;6.10;1.00
8953;DHT22;4511;50.890;8.054;2024-02-26T05:58:27;6.10;1.00
8953;DHT22;4511;50.890;8.054;2024-02-26T06:00:54;6.10;1.00
8953;DHT22;4511;50.890;8.054;2024-02-26T06:03:20;6.00;1.00
8953;DHT22;4511;50.890;8.054;2024-02-26T06:05:48;6.10;1.00
8953;DHT22;4511;50.890;8.054;2024-02-26T06:08:15;6.00;1.00
8953;DHT22;4511;50.890;8.054;2024-02-26T06:10:42;6.00;1.00
8953;DHT22;4511;50.890;8.054;2024-02-26T06:13:08;6.00;1.00
8953;DHT22;4511;50.890;8.054;2024-02-26T06:15:35;6.00;1.00
8953;DHT22;4511;50.890;8.054;2024-02-26T06:18:02;6.00;1.00
8953;DHT22;4511;50.890;8.054;2024-02-26T06:20:29;6.00;1.00
8953;DHT22;4511;50.890;8.054;2024-02-26T06:22:57;5.90;1.00
8953;DHT22;4511;50.890;8.054;2024-02-26T06:25:23;5.90;1.00
8953;DHT22;4511;50.890;8.054;2024-02-26T06:27:51;5.90;1.00
8953;DHT22;4511;50.890;8.054;2024-02-26T06:30:17;5.90;1.00
8953;DHT22;4511;50.890;8.054;2024-02-26T06:32:44;6.00;1.00
8953;DHT22;4511;50.890;8.054;2024-02-26T06:35:11;6.00;1.00
8953;DHT22;4511;50.890;8.054;2024-02-26T06:37:37;5.90;1.00
8953;DHT22;4511;50.890;8.054;2024-02-26T06:40:07;5.90;1.00
8953;DHT22;4511;50.890;8.054;2024-02-26T06:42:34;5.90;1.00
8953;DHT22;4511;50.890;8.054;2024-02-26T06:45:01;5.90;1.00
8953;DHT22;4511;50.890;8.054;2024-02-26T06:47:29;5.80;1.00
8953;DHT22;4511;50.890;8.054;2024-02-26T06:49:56;5.90;1.00
8953;DHT22;4511;50.890;8.054;2024-02-26T06:52:23;5.80;1.00
8953;DHT22;4511;50.890;8.054;2024-02-26T06:54:51;5.80;1.00
8953;DHT22;4511;50.890;8.054;2024-02-26T06:57:19;5.90;1.00
8953;DHT22;4511;50.890;8.054;2024-02-26T06:59:46;5.90;1.00
8953;DHT22;4511;50.890;8.054;2024-02-26T07:02:13;5.90;1.00
8953;DHT22;4511;50.890;8.054;2024-02-26T07:04:39;5.90;1.00
8953;DHT22;4511;50.890;8.054;2024-02-26T07:07:07;5.80;1.00
8953;DHT22;4511;50.890;8.054;2024-02-26T07:09:34;5.90;1.00
8953;DHT22;4511;50.890;8.054;2024-02-26T07:12:00;5.80;1.00
8953;DHT22;4511;50.890;8.054;2024-02-26T07:14:29;5.80;1.00
8953;DHT22;4511;50.890;8.054;2024-02-26T07:16:56;5.70;1.00
8953;DHT22;4511;50.890;8.054;2024-02-26T07:19:23;5.70;1.00
8953;DHT22;4511;50.890;8.054;2024-02-26T07:21:50;5.80;1.00
8953;DHT22;4511;50.890;8.054;2024-02-26T07:24:17;5.80;1.00
8953;DHT22;4511;50.890;8.054;2024-02-26T07:26:43;5.80;1.00
8953;DHT22;4511;50.890;8.054;2024-02-26T07:29:10;5.80;1.00
8953;DHT22;4511;50.890;8.054;2024-02-26T07:31:38;5.80;1.00
8953;DHT22;4511;50.890;8.054;2024-02-26T07:34:05;5.70;1.00
8953;DHT22;4511;50.890;8.054;2024-02-26T07:36:32;5.70;1.00
8953;DHT22;4511;50.890;8.054;2024-02-26T07:38:59;5.70;1.00
8953;DHT22;4511;50.890;8.054;2024-02-26T07:41:26;5.70;1.00
8953;DHT22;4511;50.890;8.054;2024-02-26T07:43:53;5.70;1.00
8953;DHT22;4511;50.890;8.054;2024-02-26T07:46:20;5.80;1.00
8953;DHT22;4511;50.890;8.054;2024-02-26T07:48:48;5.80;1.00
8953;DHT22;4511;50.890;8.054;2024-02-26T07:51:15;5.80;1.00
8953;DHT22;4511;50.890;8.054;2024-02-26T07:53:42;5.80;1.00
8953;DHT22;4511;50.890;8.054;2024-02-26T07:56:09;5.80;1.00
8953;DHT22;4511;50.890;8.054;2024-02-26T07:58:36;5.70;1.00
8953;DHT22;4511;50.890;8.054;2024-02-26T08:01:03;5.70;1.00
8953;DHT22;4511;50.890;8.054;2024-02-26T08:03:29;5.80;1.00
8953;DHT22;4511;50.890;8.054;2024-02-26T08:05:57;5.80;1.00
8953;DHT22;4511;50.890;8.054;2024-02-26T08:08:24;5.80;1.00
8953;DHT22;4511;50.890;8.054;2024-02-26T08:10:51;5.80;1.00
8953;DHT22;4511;50.890;8.054;2024-02-26T08:13:18;5.70;1.00
8953;DHT22;4511;50.890;8.054;2024-02-26T08:15:44;5.80;1.00
8953;DHT22;4511;50.890;8.054;2024-02-26T08:18:11;5.80;1.00
8953;DHT22;4511;50.890;8.054;2024-02-26T08:20:38;5.80;26.80
8953;DHT22;4511;50.890;8.054;2024-02-26T08:23:06;5.90;30.20
8953;DHT22;4511;50.890;8.054;2024-02-26T08:25:32;5.80;5.20
8953;DHT22;4511;50.890;8.054;2024-02-26T08:27:59;5.80;22.90
8953;DHT22;4511;50.890;8.054;2024-02-26T08:30:26;5.80;57.00
8953;DHT22;4511;50.890;8.054;2024-02-26T08:32:52;5.90;98.00
8953;DHT22;4511;50.890;8.054;2024-02-26T08:35:19;5.90;54.90
8953;DHT22;4511;50.890;8.054;2024-02-26T08:37:47;5.80;9.20
8953;DHT22;4511;50.890;8.054;2024-02-26T08:40:15;5.80;29.20
8953;DHT22;4511;50.890;8.054;2024-02-26T08:42:42;5.80;97.30
8953;DHT22;4511;50.890;8.054;2024-02-26T08:45:09;5.70;12.30
8953;DHT22;4511;50.890;8.054;2024-02-26T08:47:36;5.80;99.90
8953;DHT22;4511;50.890;8.054;2024-02-26T08:50:04;5.90;99.90
8953;DHT22;4511;50.890;8.054;2024-02-26T08:52:31;5.90;99.90
8953;DHT22;4511;50.890;8.054;2024-02-26T08:54:58;5.90;99.90
8953;DHT22;4511;50.890;8.054;2024-02-26T08:57:26;5.90;99.90
8953;DHT22;4511;50.890;8.054;2024-02-26T08:59:53;6.00;99.90
8953;DHT22;4511;50.890;8.054;2024-02-26T09:02:20;6.00;99.90
8953;DHT22;4511;50.890;8.054;2024-02-26T09:04:46;6.10;99.90
8953;DHT22;4511;50.890;8.054;2024-02-26T09:07:13;6.10;99.90
8953;DHT22;4511;50.890;8.054;2024-02-26T09:09:40;6.10;99.90
8953;DHT22;4511;50.890;8.054;2024-02-26T09:12:07;6.10;99.90
8953;DHT22;4511;50.890;8.054;2024-02-26T09:14:35;6.10;99.90
8953;DHT22;4511;50.890;8.054;2024-02-26T09:17:02;6.10;99.90
8953;DHT22;4511;50.890;8.054;2024-02-26T09:19:29;6.10;99.90
8953;DHT22;4511;50.890;8.054;2024-02-26T09:21:56;6.20;1.00
8953;DHT22;4511;50.890;8.054;2024-02-26T09:24:23;6.20;1.00
8953;DHT22;4511;50.890;8.054;2024-02-26T09:26:50;6.20;1.00
8953;DHT22;4511;50.890;8.054;2024-02-26T09:29:17;6.20;1.00
8953;DHT22;4511;50.890;8.054;2024-02-26T09:31:45;6.20;1.00
8953;DHT22;4511;50.890;8.054;2024-02-26T09:34:13;6.20;99.90
8953;DHT22;4511;50.890;8.054;2024-02-26T09:36:40;6.20;1.00
8953;DHT22;4511;50.890;8.054;2024-02-26T09:39:07;6.30;1.00
8953;DHT22;4511;50.890;8.054;2024-02-26T09:41:37;6.20;1.00
8953;DHT22;4511;50.890;8.054;2024-02-26T09:44:05;6.30;1.00
8953;DHT22;4511;50.890;8.054;2024-02-26T09:46:32;6.30;1.00
8953;DHT22;4511;50.890;8.054;2024-02-26T09:49:00;6.30;1.00
8953;DHT22;4511;50.890;8.054;2024-02-26T09:51:27;6.30;1.00
8953;DHT22;4511;50.890;8.054;2024-02-26T09:53:54;6.40;1.00
8953;DHT22;4511;50.890;8.054;2024-02-26T09:56:22;6.30;99.90
8953;DHT22;4511;50.890;8.054;2024-02-26T09:58:50;6.40;99.90
8953;DHT22;4511;50.890;8.054;2024-02-26T10:01:20;6.40;1.00
8953;DHT22;4511;50.890;8.054;2024-02-26T10:03:52;6.50;1.00
8953;DHT22;4511;50.890;8.054;2024-02-26T10:06:23;6.50;99.90
8953;DHT22;4511;50.890;8.054;2024-02-26T10:08:50;6.60;1.00
8953;DHT22;4511;50.890;8.054;2024-02-26T10:11:18;6.60;99.90
8953;DHT22;4511;50.890;8.054;2024-02-26T10:13:44;6.70;1.00
8953;DHT22;4511;50.890;8.054;2024-02-26T10:16:11;6.70;99.90
8953;DHT22;4511;50.890;8.054;2024-02-26T10:18:48;6.70;99.90
8953;DHT22;4511;50.890;8.054;2024-02-26T10:21:16;6.80;99.90
8953;DHT22;4511;50.890;8.054;2024-02-26T10:23:45;6.90;99.90
8953;DHT22;4511;50.890;8.054;2024-02-26T10:26:13;7.00;99.90
8953;DHT22;4511;50.890;8.054;2024-02-26T10:28:41;7.00;99.90
8953;DHT22;4511;50.890;8.054;2024-02-26T10:31:08;7.00;99.90
8953;DHT22;4511;50.890;8.054;2024-02-26T10:33:36;7.10;99.90
8953;DHT22;4511;50.890;8.054;2024-02-26T10:36:04;7.10;99.90
8953;DHT22;4511;50.890;8.054;2024-02-26T10:38:32;7.10;99.90
8953;DHT22;4511;50.890;8.054;2024-02-26T10:41:01;7.20;99.90
8953;DHT22;4511;50.890;8.054;2024-02-26T10:43:28;7.10;99.90
8953;DHT22;4511;50.890;8.054;2024-02-26T10:45:55;7.20;99.90
8953;DHT22;4511;50.890;8.054;2024-02-26T10:48:22;7.20;99.90
8953;DHT22;4511;50.890;8.054;2024-02-26T10:50:49;7.20;99.90
8953;DHT22;4511;50.890;8.054;2024-02-26T10:53:17;7.20;99.90
8953;DHT22;4511;50.890;8.054;2024-02-26T10:55:48;7.10;91.50
8953;DHT22;4511;50.890;8.054;2024-02-26T10:58:17;7.20;99.90
8953;DHT22;4511;50.890;8.054;2024-02-26T11:00:45;7.10;74.00
8953;DHT22;4511;50.890;8.054;2024-02-26T11:03:14;7.10;99.90
8953;DHT22;4511;50.890;8.054;2024-02-26T11:05:43;7.10;95.50
8953;DHT22;4511;50.890;8.054;2024-02-26T11:08:11;7.10;99.90
8953;DHT22;4511;50.890;8.054;2024-02-26T11:10:38;7.10;99.90
8953;DHT22;4511;50.890;8.054;2024-02-26T11:13:06;7.20;95.40
8953;DHT22;4511;50.890;8.054;2024-02-26T11:15:39;7.20;99.90
8953;DHT22;4511;50.890;8.054;2024-02-26T11:18:07;7.20;99.90
8953;DHT22;4511;50.890;8.054;2024-02-26T11:20:38;7.20;55.80
8953;DHT22;4511;50.890;8.054;2024-02-26T11:23:07;7.40;99.90
8953;DHT22;4511;50.890;8.054;2024-02-26T11:25:34;7.30;30.40
8953;DHT22;4511;50.890;8.054;2024-02-26T11:28:04;7.30;20.60
8953;DHT22;4511;50.890;8.054;2024-02-26T11:30:35;7.20;28.70
8953;DHT22;4511;50.890;8.054;2024-02-26T11:33:06;7.30;93.00
8953;DHT22;4511;50.890;8.054;2024-02-26T11:35:34;7.30;77.20
8953;DHT22;4511;50.890;8.054;2024-02-26T11:38:03;7.40;69.30
8953;DHT22;4511;50.890;8.054;2024-02-26T11:40:32;7.50;37.30
8953;DHT22;4511;50.890;8.054;2024-02-26T11:42:59;7.50;40.00
8953;DHT22;4511;50.890;8.054;2024-02-26T11:45:49;7.50;74.80
8953;DHT22;4511;50.890;8.054;2024-02-26T11:48:22;7.60;99.90
8953;DHT22;4511;50.890;8.054;2024-02-26T11:50:50;7.60;99.90
8953;DHT22;4511;50.890;8.054;2024-02-26T11:53:21;7.40;45.60
8953;DHT22;4511;50.890;8.054;2024-02-26T11:55:48;7.30;99.90
8953;DHT22;4511;50.890;8.054;2024-02-26T11:58:15;7.40;99.90
8953;DHT22;4511;50.890;8.054;2024-02-26T12:00:42;7.40;99.90
8953;DHT22;4511;50.890;8.054;2024-02-26T12:03:09;7.40;22.50
8953;DHT22;4511;50.890;8.054;2024-02-26T12:05:39;7.30;36.10
8953;DHT22;4511;50.890;8.054;2024-02-26T12:08:07;7.30;95.20
8953;DHT22;4511;50.890;8.054;2024-02-26T12:10:36;7.30;28.90
8953;DHT22;4511;50.890;8.054;2024-02-26T12:13:06;7.30;38.70
8953;DHT22;4511;50.890;8.054;2024-02-26T12:15:36;7.40;41.30
8953;DHT22;4511;50.890;8.054;2024-02-26T12:18:05;7.40;20.70
8953;DHT22;4511;50.890;8.054;2024-02-26T12:20:32;7.50;99.90
8953;DHT22;4511;50.890;8.054;2024-02-26T12:23:02;7.60;35.10
8953;DHT22;4511;50.890;8.054;2024-02-26T12:25:29;7.60;21.40
8953;DHT22;4511;50.890;8.054;2024-02-26T12:27:57;7.60;13.30
8953;DHT22;4511;50.890;8.054;2024-02-26T12:30:24;7.80;20.50
8953;DHT22;4511;50.890;8.054;2024-02-26T12:32:52;7.90;33.00
8953;DHT22;4511;50.890;8.054;2024-02-26T12:35:22;7.90;27.20
8953;DHT22;4511;50.890;8.054;2024-02-26T12:37:50;7.80;1.00
8953;DHT22;4511;50.890;8.054;2024-02-26T12:40:18;7.80;1.00
8953;DHT22;4511;50.890;8.054;2024-02-26T12:42:45;7.70;1.00
8953;DHT22;4511;50.890;8.054;2024-02-26T12:45:13;7.80;1.00
8953;DHT22;4511;50.890;8.054;2024-02-26T12:47:42;7.70;1.00
8953;DHT22;4511;50.890;8.054;2024-02-26T12:50:10;7.80;1.00
8953;DHT22;4511;50.890;8.054;2024-02-26T12:52:39;7.70;1.00
8953;DHT22;4511;50.890;8.054;2024-02-26T12:55:07;7.70;1.00
8953;DHT22;4511;50.890;8.054;2024-02-26T12:57:36;7.70;1.40
8953;DHT22;4511;50.890;8.054;2024-02-26T13:00:05;7.80;46.10
8953;DHT22;4511;50.890;8.054;2024-02-26T13:02:34;7.80;1.00
8953;DHT22;4511;50.890;8.054;2024-02-26T13:05:02;7.80;1.00
8953;DHT22;4511;50.890;8.054;2024-02-26T13:07:29;7.80;2.30
8953;DHT22;4511;50.890;8.054;2024-02-26T13:09:56;7.80;1.00
8953;DHT22;4511;50.890;8.054;2024-02-26T13:12:23;7.90;1.00
8953;DHT22;4511;50.890;8.054;2024-02-26T13:14:59;7.80;1.00
8953;DHT22;4511;50.890;8.054;2024-02-26T13:17:27;7.90;1.00
8953;DHT22;4511;50.890;8.054;2024-02-26T13:19:54;7.90;1.00
8953;DHT22;4511;50.890;8.054;2024-02-26T13:22:21;8.00;1.00
8953;DHT22;4511;50.890;8.054;2024-02-26T13:24:53;8.00;1.00
8953;DHT22;4511;50.890;8.054;2024-02-26T13:27:21;8.00;1.00
8953;DHT22;4511;50.890;8.054;2024-02-26T13:29:48;8.10;1.00
8953;DHT22;4511;50.890;8.054;2024-02-26T13:32:16;8.20;1.00
8953;DHT22;4511;50.890;8.054;2024-02-26T13:34:43;8.10;1.00
8953;DHT22;4511;50.890;8.054;2024-02-26T13:37:10;8.20;1.00
8953;DHT22;4511;50.890;8.054;2024-02-26T13:39:38;8.30;1.00
8953;DHT22;4511;50.890;8.054;2024-02-26T13:42:07;8.30;1.00
8953;DHT22;4511;50.890;8.054;2024-02-26T13:44:37;8.30;1.00
8953;DHT22;4511;50.890;8.054;2024-02-26T13:47:06;8.10;1.00
8953;DHT22;4511;50.890;8.054;2024-02-26T13:49:34;8.10;1.00
8953;DHT22;4511;50.890;8.054;2024-02-26T13:52:00;8.20;1.00
8953;DHT22;4511;50.890;8.054;2024-02-26T13:54:27;8.20;1.00
8953;DHT22;4511;50.890;8.054;2024-02-26T13:56:54;8.30;1.00
8953;DHT22;4511;50.890;8.054;2024-02-26T13:59:21;8.20;1.00
8953;DHT22;4511;50.890;8.054;2024-02-26T14:01:47;8.30;1.00
8953;DHT22;4511;50.890;8.054;2024-02-26T14:04:14;8.30;1.00
8953;DHT22;4511;50.890;8.054;2024-02-26T14:06:43;8.20;1.00
8953;DHT22;4511;50.890;8.054;2024-02-26T14:09:09;8.20;1.00
8953;DHT22;4511;50.890;8.054;2024-02-26T14:11:36;8.30;1.00
8953;DHT22;4511;50.890;8.054;2024-02-26T14:14:05;8.30;1.00
8953;DHT22;4511;50.890;8.054;2024-02-26T14:16:31;8.30;1.00
8953;DHT22;4511;50.890;8.054;2024-02-26T14:18:58;8.30;1.00
8953;DHT22;4511;50.890;8.054;2024-02-26T14:21:25;8.30;1.00
8953;DHT22;4511;50.890;8.054;2024-02-26T14:23:54;8.20;1.00
8953;DHT22;4511;50.890;8.054;2024-02-26T14:26:21;8.30;1.00
8953;DHT22;4511;50.890;8.054;2024-02-26T14:28:47;8.30;1.00
8953;DHT22;4511;50.890;8.054;2024-02-26T14:31:17;8.30;1.00
8953;DHT22;4511;50.890;8.054;2024-02-26T14:33:44;8.20;1.00
8953;DHT22;4511;50.890;8.054;2024-02-26T14:36:11;8.30;1.00
8953;DHT22;4511;50.890;8.054;2024-02-26T14:38:38;8.20;1.00
8953;DHT22;4511;50.890;8.054;2024-02-26T14:41:06;8.30;1.00
8953;DHT22;4511;50.890;8.054;2024-02-26T14:43:33;8.20;1.00
8953;DHT22;4511;50.890;8.054;2024-02-26T14:46:00;8.30;1.00
8953;DHT22;4511;50.890;8.054;2024-02-26T14:48:27;8.30;1.00
8953;DHT22;4511;50.890;8.054;2024-02-26T14:50:54;8.30;1.00
8953;DHT22;4511;50.890;8.054;2024-02-26T14:53:21;8.30;1.00
8953;DHT22;4511;50.890;8.054;2024-02-26T14:55:48;8.30;1.00
8953;DHT22;4511;50.890;8.054;2024-02-26T14:58:16;8.30;1.00
8953;DHT22;4511;50.890;8.054;2024-02-26T15:00:43;8.40;1.00
8953;DHT22;4511;50.890;8.054;2024-02-26T15:03:10;8.40;1.00
8953;DHT22;4511;50.890;8.054;2024-02-26T15:05:37;8.40;1.00
8953;DHT22;4511;50.890;8.054;2024-02-26T15:08:04;8.50;1.00
8953;DHT22;4511;50.890;8.054;2024-02-26T15:10:31;8.70;1.00
8953;DHT22;4511;50.890;8.054;2024-02-26T15:12:57;8.80;1.00
8953;DHT22;4511;50.890;8.054;2024-02-26T15:15:25;8.70;1.00
8953;DHT22;4511;50.890;8.054;2024-02-26T15:17:52;8.60;1.00
8953;DHT22;4511;50.890;8.054;2024-02-26T15:20:19;8.50;1.00
8953;DHT22;4511;50.890;8.054;2024-02-26T15:22:46;8.50;1.00
8953;DHT22;4511;50.890;8.054;2024-02-26T15:25:13;8.40;1.00
8953;DHT22;4511;50.890;8.054;2024-02-26T15:27:39;8.40;1.00
8953;DHT22;4511;50.890;8.054;2024-02-26T15:30:07;8.40;1.00
8953;DHT22;4511;50.890;8.054;2024-02-26T15:32:35;8.40;1.00
8953;DHT22;4511;50.890;8.054;2024-02-26T15:35:02;8.40;1.00
8953;DHT22;4511;50.890;8.054;2024-02-26T15:37:29;8.40;1.00
8953;DHT22;4511;50.890;8.054;2024-02-26T15:39:55;8.40;1.00
8953;DHT22;4511;50.890;8.054;2024-02-26T15:42:22;8.30;1.00
8953;DHT22;4511;50.890;8.054;2024-02-26T15:44:50;8.30;1.00
8953;DHT22;4511;50.890;8.054;2024-02-26T15:47:17;8.30;1.00
8953;DHT22;4511;50.890;8.054;2024-02-26T15:49:45;8.30;1.00
8953;DHT22;4511;50.890;8.054;2024-02-26T15:52:12;8.30;1.00
8953;DHT22;4511;50.890;8.054;2024-02-26T15:54:39;8.20;1.00
8953;DHT22;4511;50.890;8.054;2024-02-26T15:57:06;8.20;1.00
8953;DHT22;4511;50.890;8.054;2024-02-26T15:59:34;8.30;1.00
8953;DHT22;4511;50.890;8.054;2024-02-26T16:02:01;8.20;1.00
8953;DHT22;4511;50.890;8.054;2024-02-26T16:04:28;8.20;1.00
8953;DHT22;4511;50.890;8.054;2024-02-26T16:06:58;8.30;1.00
8953;DHT22;4511;50.890;8.054;2024-02-26T16:09:26;8.20;1.00
8953;DHT22;4511;50.890;8.054;2024-02-26T16:11:54;8.30;1.00
8953;DHT22;4511;50.890;8.054;2024-02-26T16:14:35;8.30;1.00
8953;DHT22;4511;50.890;8.054;2024-02-26T16:17:10;8.30;1.00
8953;DHT22;4511;50.890;8.054;2024-02-26T16:19:38;8.20;1.00
8953;DHT22;4511;50.890;8.054;2024-02-26T16:22:06;8.20;1.00
8953;DHT22;4511;50.890;8.054;2024-02-26T16:24:33;8.20;1.00
8953;DHT22;4511;50.890;8.054;2024-02-26T16:26:59;8.20;1.00
8953;DHT22;4511;50.890;8.054;2024-02-26T16:29:26;8.10;1.00
8953;DHT22;4511;50.890;8.054;2024-02-26T16:31:54;8.20;1.00